sensor_id;sensor_type;location;lat;lon;timestamp;pressure;altitude;pressure_sealevel;temperature;humidity
75039;BME280;63609;49.992;14.512;2023-06-22T00:03:30;98354.41;;;17.93;66.36
75039;BME280;63609;49.992;14.512;2023-06-22T00:05:57;98347.94;;;18.30;65.06
75039;BME280;63609;49.992;14.512;2023-06-22T00:08:24;98361.16;;;18.40;64.40
75039;BME280;63609;49.992;14.512;2023-06-22T00:10:51;98359.88;;;18.36;64.02
75039;BME280;63609;49.992;14.512;2023-06-22T00:13:18;98353.81;;;18.34;64.06
75039;BME280;63609;49.992;14.512;2023-06-22T00:15:45;98358.00;;;18.36;64.02
75039;BME280;63609;49.992;14.512;2023-06-22T00:18:12;98359.03;;;18.21;64.31
75039;BME280;63609;49.992;14.512;2023-06-22T00:20:41;98356.03;;;18.09;64.50
75039;BME280;63609;49.992;14.512;2023-06-22T00:23:08;98358.94;;;18.07;64.39
75039;BME280;63609;49.992;14.512;2023-06-22T00:25:36;98362.28;;;18.09;64.29
75039;BME280;63609;49.992;14.512;2023-06-22T00:28:04;98355.97;;;18.24;63.68
75039;BME280;63609;49.992;14.512;2023-06-22T00:30:31;98354.94;;;18.25;63.33
75039;BME280;63609;49.992;14.512;2023-06-22T00:32:59;98350.84;;;18.29;63.64
75039;BME280;63609;49.992;14.512;2023-06-22T00:35:27;98349.53;;;18.25;64.51
75039;BME280;63609;49.992;14.512;2023-06-22T00:38:01;98354.38;;;18.29;63.81
75039;BME280;63609;49.992;14.512;2023-06-22T00:40:30;98350.19;;;18.27;63.67
75039;BME280;63609;49.992;14.512;2023-06-22T00:42:58;98353.31;;;18.09;64.86
75039;BME280;63609;49.992;14.512;2023-06-22T00:45:26;98349.16;;;18.06;64.09
75039;BME280;63609;49.992;14.512;2023-06-22T00:47:56;98349.91;;;18.00;63.93
75039;BME280;63609;49.992;14.512;2023-06-22T00:50:29;98340.34;;;17.98;64.23
75039;BME280;63609;49.992;14.512;2023-06-22T00:53:04;98342.72;;;18.07;64.13
75039;BME280;63609;49.992;14.512;2023-06-22T00:55:44;98335.31;;;17.95;64.41
75039;BME280;63609;49.992;14.512;2023-06-22T00:58:13;98339.88;;;17.94;63.42
75039;BME280;63609;49.992;14.512;2023-06-22T01:00:41;98339.22;;;17.92;63.30
75039;BME280;63609;49.992;14.512;2023-06-22T01:03:09;98321.44;;;17.98;62.67
75039;BME280;63609;49.992;14.512;2023-06-22T01:05:38;98320.66;;;18.04;62.87
75039;BME280;63609;49.992;14.512;2023-06-22T01:13:35;98314.22;;;18.05;63.70
75039;BME280;63609;49.992;14.512;2023-06-22T01:16:25;98317.88;;;17.97;62.94
75039;BME280;63609;49.992;14.512;2023-06-22T01:18:55;98307.56;;;17.86;65.01
75039;BME280;63609;49.992;14.512;2023-06-22T01:21:25;98312.34;;;17.84;63.63
75039;BME280;63609;49.992;14.512;2023-06-22T01:23:57;98308.16;;;17.81;63.55
75039;BME280;63609;49.992;14.512;2023-06-22T01:27:09;98314.00;;;17.85;63.35
75039;BME280;63609;49.992;14.512;2023-06-22T01:29:44;98304.09;;;17.92;62.79
75039;BME280;63609;49.992;14.512;2023-06-22T01:32:12;98307.38;;;17.88;62.68
75039;BME280;63609;49.992;14.512;2023-06-22T01:34:40;98300.69;;;17.83;62.55
75039;BME280;63609;49.992;14.512;2023-06-22T01:37:08;98300.88;;;17.82;62.78
75039;BME280;63609;49.992;14.512;2023-06-22T01:39:36;98308.22;;;17.88;62.35
75039;BME280;63609;49.992;14.512;2023-06-22T01:42:04;98299.03;;;17.82;63.02
75039;BME280;63609;49.992;14.512;2023-06-22T01:44:34;98308.84;;;17.69;61.35
75039;BME280;63609;49.992;14.512;2023-06-22T01:47:06;98308.25;;;17.37;62.55
75039;BME280;63609;49.992;14.512;2023-06-22T01:49:35;98306.28;;;17.46;61.61
75039;BME280;63609;49.992;14.512;2023-06-22T01:52:05;98314.63;;;17.51;63.57
75039;BME280;63609;49.992;14.512;2023-06-22T01:54:33;98314.41;;;17.31;64.25
75039;BME280;63609;49.992;14.512;2023-06-22T01:57:00;98314.22;;;17.18;63.41
75039;BME280;63609;49.992;14.512;2023-06-22T02:02:15;98335.25;;;17.08;64.24
75039;BME280;63609;49.992;14.512;2023-06-22T02:04:55;98335.91;;;17.10;64.24
75039;BME280;63609;49.992;14.512;2023-06-22T02:07:33;98334.41;;;17.22;63.29
75039;BME280;63609;49.992;14.512;2023-06-22T02:10:06;98347.06;;;17.21;63.40
75039;BME280;63609;49.992;14.512;2023-06-22T02:12:34;98342.69;;;17.20;63.14
75039;BME280;63609;49.992;14.512;2023-06-22T02:15:04;98346.31;;;17.28;63.91
75039;BME280;63609;49.992;14.512;2023-06-22T02:17:33;98348.06;;;17.20;65.16
75039;BME280;63609;49.992;14.512;2023-06-22T02:20:02;98342.59;;;16.61;66.99
75039;BME280;63609;49.992;14.512;2023-06-22T02:22:35;98344.13;;;16.64;67.81
75039;BME280;63609;49.992;14.512;2023-06-22T02:25:02;98345.66;;;16.81;68.09
75039;BME280;63609;49.992;14.512;2023-06-22T02:27:29;98348.72;;;16.78;68.25
75039;BME280;63609;49.992;14.512;2023-06-22T02:29:57;98344.19;;;17.08;66.57
75039;BME280;63609;49.992;14.512;2023-06-22T02:32:24;98334.88;;;17.11;65.86
75039;BME280;63609;49.992;14.512;2023-06-22T02:34:52;98345.56;;;17.19;64.87
75039;BME280;63609;49.992;14.512;2023-06-22T02:37:20;98347.88;;;17.22;65.78
75039;BME280;63609;49.992;14.512;2023-06-22T02:39:47;98342.88;;;17.19;65.43
75039;BME280;63609;49.992;14.512;2023-06-22T02:42:15;98335.81;;;17.03;65.76
75039;BME280;63609;49.992;14.512;2023-06-22T02:44:49;98334.59;;;17.06;65.55
75039;BME280;63609;49.992;14.512;2023-06-22T02:47:19;98342.31;;;17.23;64.10
75039;BME280;63609;49.992;14.512;2023-06-22T02:49:47;98334.22;;;17.23;65.39
75039;BME280;63609;49.992;14.512;2023-06-22T02:52:15;98331.13;;;17.27;64.57
75039;BME280;63609;49.992;14.512;2023-06-22T02:54:43;98331.78;;;17.29;64.03
75039;BME280;63609;49.992;14.512;2023-06-22T02:57:17;98330.03;;;17.21;64.42
75039;BME280;63609;49.992;14.512;2023-06-22T02:59:44;98320.84;;;17.30;64.88
75039;BME280;63609;49.992;14.512;2023-06-22T03:02:12;98322.13;;;17.34;64.38
75039;BME280;63609;49.992;14.512;2023-06-22T03:04:41;98324.25;;;17.39;64.22
75039;BME280;63609;49.992;14.512;2023-06-22T03:07:11;98321.84;;;17.29;64.72
75039;BME280;63609;49.992;14.512;2023-06-22T03:09:39;98320.84;;;17.30;65.27
75039;BME280;63609;49.992;14.512;2023-06-22T03:12:07;98312.34;;;17.33;64.84
75039;BME280;63609;49.992;14.512;2023-06-22T03:14:46;98311.41;;;17.26;65.42
75039;BME280;63609;49.992;14.512;2023-06-22T03:17:18;98316.53;;;17.21;65.30
75039;BME280;63609;49.992;14.512;2023-06-22T03:19:45;98317.75;;;17.18;64.81
75039;BME280;63609;49.992;14.512;2023-06-22T03:22:12;98331.69;;;17.22;64.76
75039;BME280;63609;49.992;14.512;2023-06-22T03:24:40;98337.19;;;17.14;64.52
75039;BME280;63609;49.992;14.512;2023-06-22T03:27:08;98331.44;;;17.32;64.77
75039;BME280;63609;49.992;14.512;2023-06-22T03:29:35;98336.84;;;17.32;64.83
75039;BME280;63609;49.992;14.512;2023-06-22T03:32:02;98333.56;;;17.36;64.66
75039;BME280;63609;49.992;14.512;2023-06-22T03:34:31;98339.22;;;17.41;64.34
75039;BME280;63609;49.992;14.512;2023-06-22T03:37:00;98333.25;;;17.46;63.55
75039;BME280;63609;49.992;14.512;2023-06-22T03:39:28;98329.66;;;17.53;64.32
75039;BME280;63609;49.992;14.512;2023-06-22T03:41:58;98337.09;;;17.66;63.83
75039;BME280;63609;49.992;14.512;2023-06-22T03:44:27;98341.28;;;17.54;64.48
75039;BME280;63609;49.992;14.512;2023-06-22T03:46:54;98338.00;;;17.59;64.17
75039;BME280;63609;49.992;14.512;2023-06-22T03:49:21;98333.63;;;17.58;63.89
75039;BME280;63609;49.992;14.512;2023-06-22T03:51:48;98330.94;;;17.58;63.92
75039;BME280;63609;49.992;14.512;2023-06-22T03:54:15;98332.13;;;17.70;63.88
75039;BME280;63609;49.992;14.512;2023-06-22T03:56:42;98327.19;;;17.73;65.03
75039;BME280;63609;49.992;14.512;2023-06-22T03:59:09;98333.63;;;17.72;64.90
75039;BME280;63609;49.992;14.512;2023-06-22T04:01:37;98329.06;;;17.73;65.64
75039;BME280;63609;49.992;14.512;2023-06-22T04:04:05;98325.25;;;17.89;64.22
75039;BME280;63609;49.992;14.512;2023-06-22T04:06:33;98315.00;;;17.99;64.24
75039;BME280;63609;49.992;14.512;2023-06-22T04:09:01;98303.91;;;17.94;64.76
75039;BME280;63609;49.992;14.512;2023-06-22T04:11:28;98315.75;;;18.14;64.44
75039;BME280;63609;49.992;14.512;2023-06-22T04:13:55;98315.41;;;18.24;64.24
75039;BME280;63609;49.992;14.512;2023-06-22T04:16:22;98320.91;;;18.09;65.78
75039;BME280;63609;49.992;14.512;2023-06-22T04:18:50;98317.47;;;18.22;64.78
75039;BME280;63609;49.992;14.512;2023-06-22T04:21:16;98314.97;;;18.20;65.18
75039;BME280;63609;49.992;14.512;2023-06-22T04:23:46;98316.66;;;18.21;65.40
75039;BME280;63609;49.992;14.512;2023-06-22T04:26:13;98314.03;;;18.28;65.38
75039;BME280;63609;49.992;14.512;2023-06-22T04:28:43;98317.22;;;18.59;64.74
75039;BME280;63609;49.992;14.512;2023-06-22T04:31:18;98308.91;;;18.61;64.77
75039;BME280;63609;49.992;14.512;2023-06-22T04:33:49;98311.88;;;18.66;64.98
75039;BME280;63609;49.992;14.512;2023-06-22T04:36:21;98321.88;;;18.44;66.39
75039;BME280;63609;49.992;14.512;2023-06-22T04:38:50;98326.06;;;18.46;66.41
75039;BME280;63609;49.992;14.512;2023-06-22T04:41:19;98315.81;;;18.63;65.72
75039;BME280;63609;49.992;14.512;2023-06-22T04:43:51;98317.22;;;18.59;66.06
75039;BME280;63609;49.992;14.512;2023-06-22T04:46:22;98324.13;;;18.62;66.32
75039;BME280;63609;49.992;14.512;2023-06-22T04:48:55;98328.22;;;18.86;65.30
75039;BME280;63609;49.992;14.512;2023-06-22T04:51:22;98330.78;;;18.94;65.49
75039;BME280;63609;49.992;14.512;2023-06-22T04:53:49;98331.72;;;19.07;64.83
75039;BME280;63609;49.992;14.512;2023-06-22T04:56:16;98336.84;;;19.30;64.26
75039;BME280;63609;49.992;14.512;2023-06-22T04:58:44;98332.09;;;19.39;63.97
75039;BME280;63609;49.992;14.512;2023-06-22T05:01:12;98338.13;;;19.41;64.47
75039;BME280;63609;49.992;14.512;2023-06-22T05:03:39;98350.66;;;19.42;64.30
75039;BME280;63609;49.992;14.512;2023-06-22T05:06:09;98344.78;;;19.38;64.07
75039;BME280;63609;49.992;14.512;2023-06-22T05:08:36;98341.38;;;19.64;63.31
75039;BME280;63609;49.992;14.512;2023-06-22T05:11:03;98345.38;;;19.27;65.04
75039;BME280;63609;49.992;14.512;2023-06-22T05:13:32;98357.16;;;19.13;65.69
75039;BME280;63609;49.992;14.512;2023-06-22T05:15:59;98349.31;;;19.25;66.28
75039;BME280;63609;49.992;14.512;2023-06-22T05:18:32;98359.97;;;19.33;66.25
75039;BME280;63609;49.992;14.512;2023-06-22T05:21:03;98357.41;;;19.59;65.52
75039;BME280;63609;49.992;14.512;2023-06-22T05:23:30;98355.75;;;19.65;64.08
75039;BME280;63609;49.992;14.512;2023-06-22T05:25:58;98360.84;;;19.88;63.46
75039;BME280;63609;49.992;14.512;2023-06-22T05:28:25;98359.66;;;20.10;62.98
75039;BME280;63609;49.992;14.512;2023-06-22T05:30:52;98364.13;;;19.77;65.05
75039;BME280;63609;49.992;14.512;2023-06-22T05:33:21;98366.34;;;20.08;63.70
75039;BME280;63609;49.992;14.512;2023-06-22T05:35:48;98366.81;;;20.44;62.34
75039;BME280;63609;49.992;14.512;2023-06-22T05:38:15;98369.94;;;20.48;61.83
75039;BME280;63609;49.992;14.512;2023-06-22T05:40:43;98369.34;;;20.79;60.97
75039;BME280;63609;49.992;14.512;2023-06-22T05:43:10;98372.28;;;20.64;60.82
75039;BME280;63609;49.992;14.512;2023-06-22T05:45:36;98376.84;;;21.03;59.55
75039;BME280;63609;49.992;14.512;2023-06-22T05:48:04;98384.56;;;21.06;58.92
75039;BME280;63609;49.992;14.512;2023-06-22T05:50:31;98393.56;;;21.27;57.55
75039;BME280;63609;49.992;14.512;2023-06-22T05:52:58;98392.09;;;20.98;60.47
75039;BME280;63609;49.992;14.512;2023-06-22T05:55:25;98397.09;;;20.81;61.62
75039;BME280;63609;49.992;14.512;2023-06-22T05:57:52;98392.88;;;20.45;62.57
75039;BME280;63609;49.992;14.512;2023-06-22T06:00:19;98401.88;;;19.78;65.46
75039;BME280;63609;49.992;14.512;2023-06-22T06:02:46;98394.13;;;20.36;63.00
75039;BME280;63609;49.992;14.512;2023-06-22T06:05:13;98391.22;;;20.31;62.97
75039;BME280;63609;49.992;14.512;2023-06-22T06:07:45;98379.75;;;21.08;61.29
75039;BME280;63609;49.992;14.512;2023-06-22T06:10:12;98383.25;;;21.55;59.69
75039;BME280;63609;49.992;14.512;2023-06-22T06:12:39;98391.88;;;21.97;57.54
75039;BME280;63609;49.992;14.512;2023-06-22T06:15:07;98402.94;;;21.11;60.86
75039;BME280;63609;49.992;14.512;2023-06-22T06:17:45;98399.44;;;21.81;59.03
75039;BME280;63609;49.992;14.512;2023-06-22T06:20:12;98397.84;;;22.19;57.27
75039;BME280;63609;49.992;14.512;2023-06-22T06:22:39;98397.44;;;22.53;55.54
75039;BME280;63609;49.992;14.512;2023-06-22T06:25:08;98389.41;;;22.27;56.06
75039;BME280;63609;49.992;14.512;2023-06-22T06:27:35;98390.75;;;22.42;55.79
75039;BME280;63609;49.992;14.512;2023-06-22T06:30:03;98392.38;;;22.82;56.16
75039;BME280;63609;49.992;14.512;2023-06-22T06:32:31;98384.72;;;22.72;55.83
75039;BME280;63609;49.992;14.512;2023-06-22T06:34:58;98386.50;;;22.60;56.13
75039;BME280;63609;49.992;14.512;2023-06-22T06:37:25;98382.97;;;22.84;55.69
75039;BME280;63609;49.992;14.512;2023-06-22T06:39:52;98382.81;;;22.97;54.97
75039;BME280;63609;49.992;14.512;2023-06-22T06:42:18;98377.06;;;22.87;54.62
75039;BME280;63609;49.992;14.512;2023-06-22T06:44:46;98382.44;;;23.19;54.46
75039;BME280;63609;49.992;14.512;2023-06-22T06:47:13;98386.69;;;23.33;54.69
75039;BME280;63609;49.992;14.512;2023-06-22T06:49:40;98376.88;;;23.50;53.88
75039;BME280;63609;49.992;14.512;2023-06-22T06:52:08;98376.56;;;23.40;52.82
75039;BME280;63609;49.992;14.512;2023-06-22T06:54:35;98370.44;;;23.63;54.38
75039;BME280;63609;49.992;14.512;2023-06-22T06:57:03;98371.56;;;24.22;52.92
75039;BME280;63609;49.992;14.512;2023-06-22T06:59:30;98364.31;;;24.16;52.27
75039;BME280;63609;49.992;14.512;2023-06-22T07:01:57;98368.88;;;24.04;51.90
75039;BME280;63609;49.992;14.512;2023-06-22T07:04:24;98368.50;;;24.30;51.70
75039;BME280;63609;49.992;14.512;2023-06-22T07:06:51;98372.41;;;24.76;51.79
75039;BME280;63609;49.992;14.512;2023-06-22T07:09:18;98367.72;;;24.83;50.14
75039;BME280;63609;49.992;14.512;2023-06-22T07:11:45;98362.84;;;24.85;49.70
75039;BME280;63609;49.992;14.512;2023-06-22T07:14:12;98358.06;;;24.69;50.15
75039;BME280;63609;49.992;14.512;2023-06-22T07:16:39;98358.44;;;24.84;50.85
75039;BME280;63609;49.992;14.512;2023-06-22T07:19:07;98355.72;;;25.07;49.86
75039;BME280;63609;49.992;14.512;2023-06-22T07:21:36;98350.97;;;25.03;49.81
75039;BME280;63609;49.992;14.512;2023-06-22T07:24:04;98353.69;;;25.38;48.85
75039;BME280;63609;49.992;14.512;2023-06-22T07:26:36;98343.59;;;25.27;48.71
75039;BME280;63609;49.992;14.512;2023-06-22T07:29:03;98343.53;;;25.73;48.71
75039;BME280;63609;49.992;14.512;2023-06-22T07:31:30;98344.16;;;25.64;48.30
75039;BME280;63609;49.992;14.512;2023-06-22T07:33:57;98339.66;;;25.58;47.99
75039;BME280;63609;49.992;14.512;2023-06-22T07:36:24;98330.41;;;25.87;47.85
75039;BME280;63609;49.992;14.512;2023-06-22T07:38:51;98327.94;;;25.74;47.82
75039;BME280;63609;49.992;14.512;2023-06-22T07:41:18;98331.50;;;26.14;47.50
75039;BME280;63609;49.992;14.512;2023-06-22T07:43:46;98334.75;;;26.00;47.25
75039;BME280;63609;49.992;14.512;2023-06-22T07:46:13;98332.50;;;25.97;48.89
75039;BME280;63609;49.992;14.512;2023-06-22T07:48:39;98334.25;;;26.14;47.47
75039;BME280;63609;49.992;14.512;2023-06-22T07:51:10;98325.72;;;26.73;46.66
75039;BME280;63609;49.992;14.512;2023-06-22T07:53:44;98323.53;;;26.75;45.99
75039;BME280;63609;49.992;14.512;2023-06-22T07:56:11;98319.81;;;26.81;46.64
75039;BME280;63609;49.992;14.512;2023-06-22T07:58:39;98317.03;;;26.48;46.83
75039;BME280;63609;49.992;14.512;2023-06-22T08:01:06;98309.81;;;26.92;46.51
75039;BME280;63609;49.992;14.512;2023-06-22T08:03:37;98314.47;;;26.91;45.67
75039;BME280;63609;49.992;14.512;2023-06-22T08:06:04;98312.28;;;27.49;45.37
75039;BME280;63609;49.992;14.512;2023-06-22T08:08:32;98312.00;;;27.28;45.42
75039;BME280;63609;49.992;14.512;2023-06-22T08:10:59;98306.44;;;27.40;44.96
75039;BME280;63609;49.992;14.512;2023-06-22T08:13:27;98305.78;;;27.55;44.54
75039;BME280;63609;49.992;14.512;2023-06-22T08:15:53;98312.28;;;27.71;44.70
75039;BME280;63609;49.992;14.512;2023-06-22T08:18:21;98307.00;;;27.42;44.07
75039;BME280;63609;49.992;14.512;2023-06-22T08:20:52;98300.31;;;27.77;43.61
75039;BME280;63609;49.992;14.512;2023-06-22T08:23:20;98302.31;;;27.86;42.14
75039;BME280;63609;49.992;14.512;2023-06-22T08:25:47;98298.50;;;28.14;40.81
75039;BME280;63609;49.992;14.512;2023-06-22T08:28:19;98297.78;;;27.97;41.61
75039;BME280;63609;49.992;14.512;2023-06-22T08:30:47;98285.97;;;27.96;41.63
75039;BME280;63609;49.992;14.512;2023-06-22T08:33:14;98281.09;;;28.30;39.55
75039;BME280;63609;49.992;14.512;2023-06-22T08:35:58;98277.81;;;28.34;39.94
75039;BME280;63609;49.992;14.512;2023-06-22T08:38:25;98276.84;;;28.18;39.38
75039;BME280;63609;49.992;14.512;2023-06-22T08:40:52;98277.91;;;28.39;38.87
75039;BME280;63609;49.992;14.512;2023-06-22T08:43:20;98277.53;;;28.67;38.67
75039;BME280;63609;49.992;14.512;2023-06-22T08:45:47;98283.06;;;29.04;38.46
75039;BME280;63609;49.992;14.512;2023-06-22T08:48:14;98281.75;;;28.75;37.82
75039;BME280;63609;49.992;14.512;2023-06-22T08:51:06;98280.06;;;29.11;38.17
75039;BME280;63609;49.992;14.512;2023-06-22T08:53:33;98279.13;;;29.37;39.20
75039;BME280;63609;49.992;14.512;2023-06-22T08:56:02;98280.91;;;29.74;36.95
75039;BME280;63609;49.992;14.512;2023-06-22T08:58:30;98277.00;;;29.02;38.34
75039;BME280;63609;49.992;14.512;2023-06-22T09:01:02;98272.97;;;28.14;41.37
75039;BME280;63609;49.992;14.512;2023-06-22T09:03:29;98285.63;;;28.79;38.32
75039;BME280;63609;49.992;14.512;2023-06-22T09:05:56;98270.91;;;29.47;37.91
75039;BME280;63609;49.992;14.512;2023-06-22T09:08:23;98276.78;;;29.14;37.89
75039;BME280;63609;49.992;14.512;2023-06-22T09:11:22;98273.31;;;30.01;37.00
75039;BME280;63609;49.992;14.512;2023-06-22T09:13:49;98273.19;;;29.66;38.14
75039;BME280;63609;49.992;14.512;2023-06-22T09:16:16;98268.16;;;29.47;36.79
75039;BME280;63609;49.992;14.512;2023-06-22T09:18:47;98271.06;;;29.31;38.17
75039;BME280;63609;49.992;14.512;2023-06-22T09:21:14;98274.56;;;29.11;37.93
75039;BME280;63609;49.992;14.512;2023-06-22T09:23:42;98268.50;;;29.04;38.65
75039;BME280;63609;49.992;14.512;2023-06-22T09:26:09;98263.88;;;29.19;38.05
75039;BME280;63609;49.992;14.512;2023-06-22T09:28:37;98265.81;;;29.24;38.58
75039;BME280;63609;49.992;14.512;2023-06-22T09:31:04;98250.81;;;28.89;38.23
75039;BME280;63609;49.992;14.512;2023-06-22T09:33:31;98258.84;;;29.59;38.97
75039;BME280;63609;49.992;14.512;2023-06-22T09:35:58;98250.72;;;29.99;37.48
75039;BME280;63609;49.992;14.512;2023-06-22T09:38:25;98246.66;;;28.50;40.96
75039;BME280;63609;49.992;14.512;2023-06-22T09:40:52;98241.91;;;29.25;38.83
75039;BME280;63609;49.992;14.512;2023-06-22T09:43:20;98243.84;;;30.22;36.89
75039;BME280;63609;49.992;14.512;2023-06-22T09:45:47;98241.66;;;30.60;36.11
75039;BME280;63609;49.992;14.512;2023-06-22T09:48:14;98242.25;;;30.36;36.35
75039;BME280;63609;49.992;14.512;2023-06-22T09:50:42;98240.31;;;30.42;36.23
75039;BME280;63609;49.992;14.512;2023-06-22T09:53:12;98247.72;;;30.72;35.44
75039;BME280;63609;49.992;14.512;2023-06-22T09:55:38;98245.50;;;30.89;34.30
75039;BME280;63609;49.992;14.512;2023-06-22T09:58:05;98244.13;;;30.87;35.76
75039;BME280;63609;49.992;14.512;2023-06-22T10:00:36;98243.00;;;30.88;32.79
75039;BME280;63609;49.992;14.512;2023-06-22T10:03:03;98246.19;;;31.25;33.63
75039;BME280;63609;49.992;14.512;2023-06-22T10:05:31;98247.13;;;30.90;33.39
75039;BME280;63609;49.992;14.512;2023-06-22T10:07:59;98239.34;;;31.18;33.36
75039;BME280;63609;49.992;14.512;2023-06-22T10:10:26;98247.31;;;31.29;32.78
75039;BME280;63609;49.992;14.512;2023-06-22T10:12:57;98250.88;;;31.25;34.75
75039;BME280;63609;49.992;14.512;2023-06-22T10:15:27;98247.81;;;31.42;34.03
75039;BME280;63609;49.992;14.512;2023-06-22T10:17:55;98244.13;;;30.97;34.21
75039;BME280;63609;49.992;14.512;2023-06-22T10:20:22;98241.09;;;30.78;34.89
75039;BME280;63609;49.992;14.512;2023-06-22T10:22:50;98233.69;;;30.43;35.99
75039;BME280;63609;49.992;14.512;2023-06-22T10:25:17;98239.06;;;31.14;34.47
75039;BME280;63609;49.992;14.512;2023-06-22T10:27:44;98235.00;;;31.66;32.94
75039;BME280;63609;49.992;14.512;2023-06-22T10:30:13;98234.63;;;32.22;33.02
75039;BME280;63609;49.992;14.512;2023-06-22T10:32:44;98226.78;;;32.05;33.02
75039;BME280;63609;49.992;14.512;2023-06-22T10:35:12;98227.22;;;32.51;32.92
75039;BME280;63609;49.992;14.512;2023-06-22T10:37:46;98234.34;;;31.25;34.89
75039;BME280;63609;49.992;14.512;2023-06-22T10:40:14;98225.38;;;30.79;36.08
75039;BME280;63609;49.992;14.512;2023-06-22T10:42:46;98225.25;;;31.34;34.80
75039;BME280;63609;49.992;14.512;2023-06-22T10:45:13;98228.69;;;30.70;35.06
75039;BME280;63609;49.992;14.512;2023-06-22T10:47:41;98234.63;;;31.23;33.87
75039;BME280;63609;49.992;14.512;2023-06-22T10:50:11;98231.03;;;31.38;33.98
75039;BME280;63609;49.992;14.512;2023-06-22T10:52:38;98225.25;;;31.79;33.18
75039;BME280;63609;49.992;14.512;2023-06-22T10:55:06;98217.38;;;30.97;34.41
75039;BME280;63609;49.992;14.512;2023-06-22T10:57:33;98224.25;;;31.59;34.11
75039;BME280;63609;49.992;14.512;2023-06-22T11:00:00;98213.97;;;31.75;34.09
75039;BME280;63609;49.992;14.512;2023-06-22T11:02:27;98207.19;;;30.62;37.25
75039;BME280;63609;49.992;14.512;2023-06-22T11:04:55;98211.03;;;30.87;36.00
75039;BME280;63609;49.992;14.512;2023-06-22T11:07:23;98206.13;;;31.92;34.51
75039;BME280;63609;49.992;14.512;2023-06-22T11:09:53;98205.16;;;32.12;32.78
75039;BME280;63609;49.992;14.512;2023-06-22T11:12:19;98200.06;;;32.24;33.04
75039;BME280;63609;49.992;14.512;2023-06-22T11:14:47;98196.97;;;31.53;35.30
75039;BME280;63609;49.992;14.512;2023-06-22T11:17:15;98195.63;;;32.00;31.70
75039;BME280;63609;49.992;14.512;2023-06-22T11:19:51;98202.16;;;32.09;34.11
75039;BME280;63609;49.992;14.512;2023-06-22T11:23:18;98189.63;;;30.38;34.73
75039;BME280;63609;49.992;14.512;2023-06-22T11:25:45;98187.63;;;29.72;35.05
75039;BME280;63609;49.992;14.512;2023-06-22T11:28:13;98183.47;;;29.65;36.17
75039;BME280;63609;49.992;14.512;2023-06-22T11:30:40;98193.19;;;30.49;34.21
75039;BME280;63609;49.992;14.512;2023-06-22T11:33:54;98198.69;;;31.44;32.93
75039;BME280;63609;49.992;14.512;2023-06-22T11:36:58;98180.97;;;31.99;31.68
75039;BME280;63609;49.992;14.512;2023-06-22T11:39:25;98181.00;;;32.57;30.42
75039;BME280;63609;49.992;14.512;2023-06-22T11:42:09;98170.47;;;33.12;30.27
75039;BME280;63609;49.992;14.512;2023-06-22T11:44:36;98166.41;;;33.04;29.22
75039;BME280;63609;49.992;14.512;2023-06-22T11:47:04;98159.94;;;32.37;30.27
75039;BME280;63609;49.992;14.512;2023-06-22T11:49:31;98158.41;;;33.03;29.63
75039;BME280;63609;49.992;14.512;2023-06-22T11:51:59;98146.19;;;32.32;30.66
75039;BME280;63609;49.992;14.512;2023-06-22T11:54:25;98155.41;;;33.23;30.23
75039;BME280;63609;49.992;14.512;2023-06-22T11:56:53;98149.72;;;32.38;33.04
75039;BME280;63609;49.992;14.512;2023-06-22T11:59:20;98152.00;;;31.52;32.89
75039;BME280;63609;49.992;14.512;2023-06-22T12:01:50;98153.69;;;30.89;35.63
75039;BME280;63609;49.992;14.512;2023-06-22T12:04:18;98151.63;;;32.08;31.85
75039;BME280;63609;49.992;14.512;2023-06-22T12:06:45;98158.09;;;32.22;31.74
75039;BME280;63609;49.992;14.512;2023-06-22T12:09:14;98151.81;;;30.54;33.89
75039;BME280;63609;49.992;14.512;2023-06-22T12:11:42;98156.13;;;31.99;32.92
75039;BME280;63609;49.992;14.512;2023-06-22T12:14:09;98152.31;;;32.53;31.19
75039;BME280;63609;49.992;14.512;2023-06-22T12:16:36;98147.28;;;32.31;31.81
75039;BME280;63609;49.992;14.512;2023-06-22T12:19:04;98139.19;;;31.72;32.90
75039;BME280;63609;49.992;14.512;2023-06-22T12:21:37;98149.03;;;30.74;36.49
75039;BME280;63609;49.992;14.512;2023-06-22T12:24:11;98141.97;;;31.17;34.91
75039;BME280;63609;49.992;14.512;2023-06-22T12:26:38;98137.31;;;31.13;35.92
75039;BME280;63609;49.992;14.512;2023-06-22T12:29:05;98143.72;;;32.25;32.49
75039;BME280;63609;49.992;14.512;2023-06-22T12:31:32;98146.53;;;32.20;31.48
75039;BME280;63609;49.992;14.512;2023-06-22T12:33:59;98131.22;;;32.62;31.91
75039;BME280;63609;49.992;14.512;2023-06-22T12:36:27;98131.84;;;32.30;32.71
75039;BME280;63609;49.992;14.512;2023-06-22T12:38:54;98121.47;;;32.12;31.69
75039;BME280;63609;49.992;14.512;2023-06-22T12:41:25;98124.47;;;32.97;30.92
75039;BME280;63609;49.992;14.512;2023-06-22T12:43:53;98118.44;;;32.90;29.96
75039;BME280;63609;49.992;14.512;2023-06-22T12:46:20;98114.50;;;32.96;31.31
75039;BME280;63609;49.992;14.512;2023-06-22T12:48:47;98107.97;;;32.87;31.10
75039;BME280;63609;49.992;14.512;2023-06-22T12:51:20;98100.09;;;32.99;30.76
75039;BME280;63609;49.992;14.512;2023-06-22T12:53:48;98112.38;;;32.88;32.18
75039;BME280;63609;49.992;14.512;2023-06-22T12:56:16;98109.88;;;31.81;33.05
75039;BME280;63609;49.992;14.512;2023-06-22T12:58:43;98101.84;;;31.79;34.24
75039;BME280;63609;49.992;14.512;2023-06-22T13:01:15;98094.38;;;32.67;32.45
75039;BME280;63609;49.992;14.512;2023-06-22T13:03:52;98086.25;;;32.51;32.51
75039;BME280;63609;49.992;14.512;2023-06-22T13:06:19;98071.72;;;33.31;31.06
75039;BME280;63609;49.992;14.512;2023-06-22T13:08:46;98073.09;;;32.14;32.36
75039;BME280;63609;49.992;14.512;2023-06-22T13:11:16;98075.88;;;31.02;34.83